sensor_id;sensor_type;location;lat;lon;timestamp;P1;durP1;ratioP1;P2;durP2;ratioP2
18194;SDS011;9223;50.988;3.162;2023-05-24T00:05:28;12.00;;;3.00;;
18194;SDS011;9223;50.988;3.162;2023-05-24T00:11:32;10.18;;;2.70;;
18194;SDS011;9223;50.988;3.162;2023-05-24T00:17:37;6.65;;;2.78;;
18194;SDS011;9223;50.988;3.162;2023-05-24T00:23:42;7.20;;;2.72;;
18194;SDS011;9223;50.988;3.162;2023-05-24T00:29:45;8.68;;;3.33;;
18194;SDS011;9223;50.988;3.162;2023-05-24T00:35:50;12.25;;;3.25;;
18194;SDS011;9223;50.988;3.162;2023-05-24T00:41:56;6.93;;;2.90;;
18194;SDS011;9223;50.988;3.162;2023-05-24T00:48:00;10.05;;;2.80;;
18194;SDS011;9223;50.988;3.162;2023-05-24T00:54:05;6.50;;;3.50;;
18194;SDS011;9223;50.988;3.162;2023-05-24T01:00:09;6.60;;;2.92;;
18194;SDS011;9223;50.988;3.162;2023-05-24T01:06:13;7.25;;;2.90;;
18194;SDS011;9223;50.988;3.162;2023-05-24T01:12:22;9.93;;;3.08;;
18194;SDS011;9223;50.988;3.162;2023-05-24T01:18:28;6.30;;;2.58;;
18194;SDS011;9223;50.988;3.162;2023-05-24T01:24:36;6.57;;;2.72;;
18194;SDS011;9223;50.988;3.162;2023-05-24T01:30:45;7.63;;;2.67;;
18194;SDS011;9223;50.988;3.162;2023-05-24T01:36:48;5.65;;;2.67;;
18194;SDS011;9223;50.988;3.162;2023-05-24T01:42:54;8.10;;;2.88;;
18194;SDS011;9223;50.988;3.162;2023-05-24T01:49:05;10.35;;;3.28;;
18194;SDS011;9223;50.988;3.162;2023-05-24T01:55:09;8.35;;;2.92;;
18194;SDS011;9223;50.988;3.162;2023-05-24T02:01:13;7.13;;;2.70;;
18194;SDS011;9223;50.988;3.162;2023-05-24T02:07:18;7.05;;;3.15;;
18194;SDS011;9223;50.988;3.162;2023-05-24T02:13:22;7.88;;;3.20;;
18194;SDS011;9223;50.988;3.162;2023-05-24T02:19:26;7.22;;;3.38;;
18194;SDS011;9223;50.988;3.162;2023-05-24T02:25:31;8.70;;;3.25;;
18194;SDS011;9223;50.988;3.162;2023-05-24T02:31:35;6.18;;;3.10;;
18194;SDS011;9223;50.988;3.162;2023-05-24T02:37:39;7.32;;;3.50;;
18194;SDS011;9223;50.988;3.162;2023-05-24T02:43:44;11.10;;;3.50;;
18194;SDS011;9223;50.988;3.162;2023-05-24T02:49:47;6.43;;;3.15;;
18194;SDS011;9223;50.988;3.162;2023-05-24T02:55:51;7.20;;;3.10;;
18194;SDS011;9223;50.988;3.162;2023-05-24T03:01:56;6.70;;;3.10;;
18194;SDS011;9223;50.988;3.162;2023-05-24T03:08:00;10.85;;;3.47;;
18194;SDS011;9223;50.988;3.162;2023-05-24T03:14:04;9.25;;;3.42;;
18194;SDS011;9223;50.988;3.162;2023-05-24T03:20:11;7.10;;;3.60;;
18194;SDS011;9223;50.988;3.162;2023-05-24T03:26:16;5.88;;;3.53;;
18194;SDS011;9223;50.988;3.162;2023-05-24T03:32:21;8.85;;;3.53;;
18194;SDS011;9223;50.988;3.162;2023-05-24T03:38:25;9.05;;;2.97;;
18194;SDS011;9223;50.988;3.162;2023-05-24T03:44:29;9.10;;;3.15;;
18194;SDS011;9223;50.988;3.162;2023-05-24T03:50:32;6.57;;;3.20;;
18194;SDS011;9223;50.988;3.162;2023-05-24T03:56:37;7.85;;;3.30;;
18194;SDS011;9223;50.988;3.162;2023-05-24T04:02:41;7.35;;;3.15;;
18194;SDS011;9223;50.988;3.162;2023-05-24T04:08:44;7.78;;;3.42;;
18194;SDS011;9223;50.988;3.162;2023-05-24T04:14:49;9.48;;;3.47;;
18194;SDS011;9223;50.988;3.162;2023-05-24T04:20:53;9.63;;;3.47;;
18194;SDS011;9223;50.988;3.162;2023-05-24T04:26:56;9.93;;;4.20;;
18194;SDS011;9223;50.988;3.162;2023-05-24T04:33:01;7.78;;;3.45;;
18194;SDS011;9223;50.988;3.162;2023-05-24T04:39:05;8.35;;;3.75;;
18194;SDS011;9223;50.988;3.162;2023-05-24T04:45:09;12.57;;;3.70;;
18194;SDS011;9223;50.988;3.162;2023-05-24T04:51:14;9.25;;;3.60;;
18194;SDS011;9223;50.988;3.162;2023-05-24T04:57:18;11.52;;;4.68;;
18194;SDS011;9223;50.988;3.162;2023-05-24T05:03:21;13.45;;;4.25;;
18194;SDS011;9223;50.988;3.162;2023-05-24T05:09:28;9.30;;;4.10;;
18194;SDS011;9223;50.988;3.162;2023-05-24T05:15:31;13.25;;;4.13;;
18194;SDS011;9223;50.988;3.162;2023-05-24T05:21:35;11.70;;;4.70;;
18194;SDS011;9223;50.988;3.162;2023-05-24T05:27:41;13.02;;;5.07;;
18194;SDS011;9223;50.988;3.162;2023-05-24T05:33:44;14.38;;;5.32;;
18194;SDS011;9223;50.988;3.162;2023-05-24T05:39:48;12.48;;;4.53;;
18194;SDS011;9223;50.988;3.162;2023-05-24T05:45:53;10.45;;;4.72;;
18194;SDS011;9223;50.988;3.162;2023-05-24T05:51:57;13.30;;;5.00;;
18194;SDS011;9223;50.988;3.162;2023-05-24T05:58:00;11.60;;;5.03;;
18194;SDS011;9223;50.988;3.162;2023-05-24T06:04:05;8.35;;;4.13;;
18194;SDS011;9223;50.988;3.162;2023-05-24T06:10:09;9.32;;;4.88;;
18194;SDS011;9223;50.988;3.162;2023-05-24T06:16:13;12.50;;;5.65;;
18194;SDS011;9223;50.988;3.162;2023-05-24T06:22:19;11.50;;;5.32;;
18194;SDS011;9223;50.988;3.162;2023-05-24T06:28:23;8.55;;;4.00;;
18194;SDS011;9223;50.988;3.162;2023-05-24T06:34:26;10.43;;;3.75;;
18194;SDS011;9223;50.988;3.162;2023-05-24T06:40:31;13.27;;;4.10;;
18194;SDS011;9223;50.988;3.162;2023-05-24T06:46:35;8.97;;;4.13;;
18194;SDS011;9223;50.988;3.162;2023-05-24T06:52:39;11.67;;;5.20;;
18194;SDS011;9223;50.988;3.162;2023-05-24T06:58:44;9.35;;;3.63;;
18194;SDS011;9223;50.988;3.162;2023-05-24T07:04:47;10.10;;;4.15;;
18194;SDS011;9223;50.988;3.162;2023-05-24T07:10:52;10.02;;;4.38;;
18194;SDS011;9223;50.988;3.162;2023-05-24T07:16:57;8.60;;;3.70;;
18194;SDS011;9223;50.988;3.162;2023-05-24T07:23:01;9.88;;;4.72;;
18194;SDS011;9223;50.988;3.162;2023-05-24T07:29:04;13.43;;;6.27;;
18194;SDS011;9223;50.988;3.162;2023-05-24T07:35:10;11.10;;;4.60;;
18194;SDS011;9223;50.988;3.162;2023-05-24T07:41:14;8.02;;;4.45;;
18194;SDS011;9223;50.988;3.162;2023-05-24T07:47:17;6.93;;;3.90;;
18194;SDS011;9223;50.988;3.162;2023-05-24T07:53:22;8.60;;;3.35;;
18194;SDS011;9223;50.988;3.162;2023-05-24T07:59:27;8.32;;;3.95;;
18194;SDS011;9223;50.988;3.162;2023-05-24T08:05:30;9.90;;;4.60;;
18194;SDS011;9223;50.988;3.162;2023-05-24T08:11:35;9.02;;;4.15;;
18194;SDS011;9223;50.988;3.162;2023-05-24T08:17:39;8.02;;;4.15;;
18194;SDS011;9223;50.988;3.162;2023-05-24T08:23:43;6.60;;;2.83;;
18194;SDS011;9223;50.988;3.162;2023-05-24T08:29:48;7.75;;;3.78;;
18194;SDS011;9223;50.988;3.162;2023-05-24T08:35:51;10.07;;;4.95;;
18194;SDS011;9223;50.988;3.162;2023-05-24T08:41:55;12.45;;;3.67;;
18194;SDS011;9223;50.988;3.162;2023-05-24T08:48:05;8.15;;;3.88;;
18194;SDS011;9223;50.988;3.162;2023-05-24T08:54:08;7.73;;;3.47;;
18194;SDS011;9223;50.988;3.162;2023-05-24T09:00:14;4.97;;;2.13;;
18194;SDS011;9223;50.988;3.162;2023-05-24T09:06:20;6.55;;;2.97;;
18194;SDS011;9223;50.988;3.162;2023-05-24T09:12:25;9.43;;;2.60;;
18194;SDS011;9223;50.988;3.162;2023-05-24T09:18:39;8.07;;;3.17;;
18194;SDS011;9223;50.988;3.162;2023-05-24T09:24:45;7.60;;;3.25;;
18194;SDS011;9223;50.988;3.162;2023-05-24T09:30:59;9.57;;;4.13;;
18194;SDS011;9223;50.988;3.162;2023-05-24T09:37:09;6.53;;;2.47;;
18194;SDS011;9223;50.988;3.162;2023-05-24T09:43:18;5.78;;;2.45;;
18194;SDS011;9223;50.988;3.162;2023-05-24T09:49:26;7.70;;;3.90;;
18194;SDS011;9223;50.988;3.162;2023-05-24T09:55:29;7.05;;;2.88;;
18194;SDS011;9223;50.988;3.162;2023-05-24T10:01:38;8.52;;;3.08;;
18194;SDS011;9223;50.988;3.162;2023-05-24T10:07:42;7.07;;;3.30;;
18194;SDS011;9223;50.988;3.162;2023-05-24T10:13:46;5.72;;;3.20;;
18194;SDS011;9223;50.988;3.162;2023-05-24T10:19:51;6.57;;;3.20;;
18194;SDS011;9223;50.988;3.162;2023-05-24T10:25:58;7.82;;;3.17;;
18194;SDS011;9223;50.988;3.162;2023-05-24T10:32:06;5.72;;;2.47;;
18194;SDS011;9223;50.988;3.162;2023-05-24T10:38:12;7.35;;;3.55;;
18194;SDS011;9223;50.988;3.162;2023-05-24T10:44:17;7.13;;;4.25;;
18194;SDS011;9223;50.988;3.162;2023-05-24T10:50:21;9.40;;;4.57;;
18194;SDS011;9223;50.988;3.162;2023-05-24T10:56:27;6.70;;;3.17;;
18194;SDS011;9223;50.988;3.162;2023-05-24T11:02:33;6.78;;;2.92;;
18194;SDS011;9223;50.988;3.162;2023-05-24T11:08:39;6.25;;;2.67;;
18194;SDS011;9223;50.988;3.162;2023-05-24T11:14:47;8.55;;;3.25;;
18194;SDS011;9223;50.988;3.162;2023-05-24T11:20:51;7.90;;;2.67;;
18194;SDS011;9223;50.988;3.162;2023-05-24T11:26:56;4.82;;;3.40;;
18194;SDS011;9223;50.988;3.162;2023-05-24T11:33:02;6.10;;;3.15;;
18194;SDS011;9223;50.988;3.162;2023-05-24T11:39:06;3.97;;;2.38;;
18194;SDS011;9223;50.988;3.162;2023-05-24T11:45:10;4.00;;;1.90;;
18194;SDS011;9223;50.988;3.162;2023-05-24T11:51:15;5.68;;;2.38;;
18194;SDS011;9223;50.988;3.162;2023-05-24T11:57:21;3.97;;;2.45;;
18194;SDS011;9223;50.988;3.162;2023-05-24T12:03:28;5.60;;;2.58;;
18194;SDS011;9223;50.988;3.162;2023-05-24T12:09:33;4.25;;;3.40;;
18194;SDS011;9223;50.988;3.162;2023-05-24T12:15:36;8.82;;;3.28;;
18194;SDS011;9223;50.988;3.162;2023-05-24T12:21:40;6.07;;;3.45;;
18194;SDS011;9223;50.988;3.162;2023-05-24T12:27:45;5.57;;;3.42;;
18194;SDS011;9223;50.988;3.162;2023-05-24T12:33:49;5.70;;;2.90;;
18194;SDS011;9223;50.988;3.162;2023-05-24T12:39:54;4.40;;;2.50;;
18194;SDS011;9223;50.988;3.162;2023-05-24T12:45:59;5.32;;;3.13;;
18194;SDS011;9223;50.988;3.162;2023-05-24T12:52:04;7.53;;;3.43;;
18194;SDS011;9223;50.988;3.162;2023-05-24T12:58:08;5.45;;;3.17;;
18194;SDS011;9223;50.988;3.162;2023-05-24T13:04:16;8.80;;;3.47;;
18194;SDS011;9223;50.988;3.162;2023-05-24T13:10:21;7.50;;;3.35;;
18194;SDS011;9223;50.988;3.162;2023-05-24T13:16:25;8.25;;;4.07;;
18194;SDS011;9223;50.988;3.162;2023-05-24T13:22:30;6.55;;;3.35;;
18194;SDS011;9223;50.988;3.162;2023-05-24T13:28:33;4.78;;;3.17;;
18194;SDS011;9223;50.988;3.162;2023-05-24T13:34:39;7.40;;;3.35;;
18194;SDS011;9223;50.988;3.162;2023-05-24T13:40:44;6.85;;;3.50;;
18194;SDS011;9223;50.988;3.162;2023-05-24T13:46:48;7.50;;;3.28;;
18194;SDS011;9223;50.988;3.162;2023-05-24T13:52:52;6.90;;;3.92;;
18194;SDS011;9223;50.988;3.162;2023-05-24T13:58:57;5.22;;;3.60;;
18194;SDS011;9223;50.988;3.162;2023-05-24T14:05:02;7.43;;;4.50;;
18194;SDS011;9223;50.988;3.162;2023-05-24T14:11:25;8.55;;;3.05;;
18194;SDS011;9223;50.988;3.162;2023-05-24T14:17:33;8.00;;;4.40;;
18194;SDS011;9223;50.988;3.162;2023-05-24T14:23:37;7.90;;;4.10;;
18194;SDS011;9223;50.988;3.162;2023-05-24T14:29:41;9.60;;;4.43;;
18194;SDS011;9223;50.988;3.162;2023-05-24T14:35:46;8.75;;;4.30;;
18194;SDS011;9223;50.988;3.162;2023-05-24T14:41:50;8.30;;;4.57;;
18194;SDS011;9223;50.988;3.162;2023-05-24T14:47:53;8.40;;;3.53;;
18194;SDS011;9223;50.988;3.162;2023-05-24T14:53:59;7.80;;;3.95;;
18194;SDS011;9223;50.988;3.162;2023-05-24T15:00:03;7.63;;;3.83;;
18194;SDS011;9223;50.988;3.162;2023-05-24T15:06:07;11.70;;;4.60;;
18194;SDS011;9223;50.988;3.162;2023-05-24T15:12:12;7.13;;;4.30;;
18194;SDS011;9223;50.988;3.162;2023-05-24T15:18:15;8.70;;;4.05;;
18194;SDS011;9223;50.988;3.162;2023-05-24T15:24:19;7.88;;;4.57;;
18194;SDS011;9223;50.988;3.162;2023-05-24T15:30:24;7.70;;;3.85;;
18194;SDS011;9223;50.988;3.162;2023-05-24T15:36:27;10.37;;;5.50;;
18194;SDS011;9223;50.988;3.162;2023-05-24T15:42:31;9.80;;;4.15;;
18194;SDS011;9223;50.988;3.162;2023-05-24T15:48:36;8.32;;;4.47;;
18194;SDS011;9223;50.988;3.162;2023-05-24T15:54:39;11.57;;;5.35;;
18194;SDS011;9223;50.988;3.162;2023-05-24T16:00:43;10.35;;;4.85;;
18194;SDS011;9223;50.988;3.162;2023-05-24T16:06:48;10.55;;;4.80;;
18194;SDS011;9223;50.988;3.162;2023-05-24T16:12:52;10.05;;;4.13;;
18194;SDS011;9223;50.988;3.162;2023-05-24T16:18:56;14.05;;;4.95;;
18194;SDS011;9223;50.988;3.162;2023-05-24T16:25:01;10.32;;;4.95;;
18194;SDS011;9223;50.988;3.162;2023-05-24T16:31:04;8.60;;;4.30;;
18194;SDS011;9223;50.988;3.162;2023-05-24T16:37:08;11.32;;;4.95;;
18194;SDS011;9223;50.988;3.162;2023-05-24T16:43:13;7.88;;;4.22;;
18194;SDS011;9223;50.988;3.162;2023-05-24T16:49:17;8.05;;;3.90;;
18194;SDS011;9223;50.988;3.162;2023-05-24T16:55:20;8.30;;;3.85;;
18194;SDS011;9223;50.988;3.162;2023-05-24T17:01:25;7.47;;;3.60;;
18194;SDS011;9223;50.988;3.162;2023-05-24T17:07:30;5.88;;;2.67;;
18194;SDS011;9223;50.988;3.162;2023-05-24T17:13:34;5.68;;;2.80;;
18194;SDS011;9223;50.988;3.162;2023-05-24T17:19:39;7.38;;;2.85;;
18194;SDS011;9223;50.988;3.162;2023-05-24T17:25:42;4.57;;;2.63;;
18194;SDS011;9223;50.988;3.162;2023-05-24T17:31:46;6.28;;;2.70;;
18194;SDS011;9223;50.988;3.162;2023-05-24T17:37:51;6.28;;;2.50;;
18194;SDS011;9223;50.988;3.162;2023-05-24T17:43:55;5.90;;;2.50;;
18194;SDS011;9223;50.988;3.162;2023-05-24T17:49:58;7.38;;;2.22;;
18194;SDS011;9223;50.988;3.162;2023-05-24T17:56:03;4.05;;;2.38;;
18194;SDS011;9223;50.988;3.162;2023-05-24T18:02:07;6.93;;;2.30;;
18194;SDS011;9223;50.988;3.162;2023-05-24T18:08:10;5.00;;;2.15;;
18194;SDS011;9223;50.988;3.162;2023-05-24T18:14:15;5.80;;;2.63;;
18194;SDS011;9223;50.988;3.162;2023-05-24T18:20:20;4.70;;;2.30;;
18194;SDS011;9223;50.988;3.162;2023-05-24T18:26:24;6.32;;;2.28;;
18194;SDS011;9223;50.988;3.162;2023-05-24T18:32:28;3.85;;;2.13;;
18194;SDS011;9223;50.988;3.162;2023-05-24T18:38:32;5.40;;;1.95;;
18194;SDS011;9223;50.988;3.162;2023-05-24T18:44:36;5.72;;;2.08;;
18194;SDS011;9223;50.988;3.162;2023-05-24T18:50:41;3.78;;;1.85;;
18194;SDS011;9223;50.988;3.162;2023-05-24T18:56:45;7.13;;;2.85;;
18194;SDS011;9223;50.988;3.162;2023-05-24T19:02:48;5.35;;;2.05;;
18194;SDS011;9223;50.988;3.162;2023-05-24T19:08:53;6.82;;;2.38;;
18194;SDS011;9223;50.988;3.162;2023-05-24T19:14:57;7.63;;;2.47;;
18194;SDS011;9223;50.988;3.162;2023-05-24T19:21:03;5.28;;;2.50;;
18194;SDS011;9223;50.988;3.162;2023-05-24T19:27:07;7.90;;;2.28;;
18194;SDS011;9223;50.988;3.162;2023-05-24T19:33:11;5.18;;;2.00;;
18194;SDS011;9223;50.988;3.162;2023-05-24T19:39:15;4.93;;;2.13;;
18194;SDS011;9223;50.988;3.162;2023-05-24T19:45:20;7.38;;;2.38;;
18194;SDS011;9223;50.988;3.162;2023-05-24T19:51:24;7.25;;;2.85;;
18194;SDS011;9223;50.988;3.162;2023-05-24T19:57:27;8.65;;;2.53;;
18194;SDS011;9223;50.988;3.162;2023-05-24T20:03:32;8.93;;;2.15;;
18194;SDS011;9223;50.988;3.162;2023-05-24T20:09:42;6.43;;;2.10;;
18194;SDS011;9223;50.988;3.162;2023-05-24T20:15:45;7.22;;;2.42;;
18194;SDS011;9223;50.988;3.162;2023-05-24T20:21:50;5.88;;;2.30;;
18194;SDS011;9223;50.988;3.162;2023-05-24T20:27:54;7.85;;;2.60;;
18194;SDS011;9223;50.988;3.162;2023-05-24T20:33:58;8.10;;;2.67;;
18194;SDS011;9223;50.988;3.162;2023-05-24T20:40:03;7.70;;;2.58;;
18194;SDS011;9223;50.988;3.162;2023-05-24T20:46:07;9.27;;;2.78;;
18194;SDS011;9223;50.988;3.162;2023-05-24T20:52:11;6.95;;;2.70;;
18194;SDS011;9223;50.988;3.162;2023-05-24T20:58:18;7.47;;;2.85;;
18194;SDS011;9223;50.988;3.162;2023-05-24T21:04:21;7.57;;;2.30;;
18194;SDS011;9223;50.988;3.162;2023-05-24T21:10:25;8.35;;;2.78;;
18194;SDS011;9223;50.988;3.162;2023-05-24T21:16:30;10.27;;;2.65;;
18194;SDS011;9223;50.988;3.162;2023-05-24T21:22:34;8.75;;;2.67;;
18194;SDS011;9223;50.988;3.162;2023-05-24T21:28:37;10.43;;;2.67;;
18194;SDS011;9223;50.988;3.162;2023-05-24T21:34:42;5.90;;;2.85;;
18194;SDS011;9223;50.988;3.162;2023-05-24T21:40:46;8.55;;;2.55;;
18194;SDS011;9223;50.988;3.162;2023-05-24T21:46:49;8.35;;;3.13;;
18194;SDS011;9223;50.988;3.162;2023-05-24T21:52:54;10.00;;;2.95;;
18194;SDS011;9223;50.988;3.162;2023-05-24T21:58:58;6.90;;;3.08;;
18194;SDS011;9223;50.988;3.162;2023-05-24T22:05:01;8.00;;;2.72;;
18194;SDS011;9223;50.988;3.162;2023-05-24T22:11:07;10.52;;;3.15;;
18194;SDS011;9223;50.988;3.162;2023-05-24T22:17:11;10.95;;;3.05;;
18194;SDS011;9223;50.988;3.162;2023-05-24T22:23:15;7.55;;;2.80;;
18194;SDS011;9223;50.988;3.162;2023-05-24T22:29:20;8.73;;;3.28;;
18194;SDS011;9223;50.988;3.162;2023-05-24T22:35:23;9.13;;;2.90;;
18194;SDS011;9223;50.988;3.162;2023-05-24T22:41:27;7.53;;;3.10;;
18194;SDS011;9223;50.988;3.162;2023-05-24T22:47:32;8.45;;;3.15;;
18194;SDS011;9223;50.988;3.162;2023-05-24T22:53:35;6.35;;;3.17;;
18194;SDS011;9223;50.988;3.162;2023-05-24T22:59:40;6.65;;;2.97;;
18194;SDS011;9223;50.988;3.162;2023-05-24T23:05:47;7.63;;;3.58;;
18194;SDS011;9223;50.988;3.162;2023-05-24T23:11:54;8.05;;;3.20;;
18194;SDS011;9223;50.988;3.162;2023-05-24T23:17:59;7.32;;;3.40;;
18194;SDS011;9223;50.988;3.162;2023-05-24T23:24:05;8.48;;;3.47;;
18194;SDS011;9223;50.988;3.162;2023-05-24T23:30:14;8.48;;;3.40;;
18194;SDS011;9223;50.988;3.162;2023-05-24T23:36:18;10.13;;;3.50;;
18194;SDS011;9223;50.988;3.162;2023-05-24T23:42:22;9.82;;;4.18;;
18194;SDS011;9223;50.988;3.162;2023-05-24T23:48:26;9.80;;;3.60;;
18194;SDS011;9223;50.988;3.162;2023-05-24T23:54:30;11.60;;;4.13;;
